Time;durP1;ratioP1;P1;durP2;ratioP2;P2;SDS_P1;SDS_P2;PMS_P1;PMS_P2;Temp;Humidity;BMP_temperature;BMP_pressure;BME280_temperature;BME280_humidity;BME280_pressure;Samples;Min_cycle;Max_cycle;Signal;HPM_P1;HPM_P2
2023/04/26 00:01:17;;;;;;;7.18;2.35;;;4.30;99.90;;;;;;5027855;28;20139;-79
2023/04/26 00:03:42;;;;;;;7.25;3.00;;;4.20;99.90;;;;;;5023883;28;20029;-79
2023/04/26 00:06:09;;;;;;;5.25;1.95;;;4.00;99.90;;;;;;5026411;28;20025;-79
2023/04/26 00:08:35;;;;;;;6.40;2.33;;;4.00;99.90;;;;;;5026350;28;20559;-79
2023/04/26 00:11:00;;;;;;;9.73;3.00;;;4.00;99.90;;;;;;5007782;28;20481;-79
2023/04/26 00:13:26;;;;;;;8.63;2.65;;;3.90;99.90;;;;;;5010574;28;20052;-79
2023/04/26 00:15:52;;;;;;;7.15;2.70;;;3.70;99.90;;;;;;5043315;28;20037;-79
2023/04/26 00:18:17;;;;;;;3.08;1.95;;;3.70;99.90;;;;;;5011706;28;20032;-78
2023/04/26 00:20:43;;;;;;;2.63;1.88;;;3.80;99.90;;;;;;5021700;28;20026;-80
2023/04/26 00:23:09;;;;;;;5.70;1.92;;;3.80;99.90;;;;;;5007945;28;20040;-80
2023/04/26 00:25:35;;;;;;;7.25;2.50;;;3.80;99.90;;;;;;5010163;28;20079;-80
2023/04/26 00:28:01;;;;;;;13.52;2.75;;;3.70;99.90;;;;;;5000778;28;20033;-80
2023/04/26 00:30:27;;;;;;;5.82;2.03;;;3.60;99.90;;;;;;5010141;28;20391;-80
2023/04/26 00:32:52;;;;;;;5.47;1.80;;;3.50;99.90;;;;;;5010486;28;20057;-80
2023/04/26 00:35:18;;;;;;;5.78;2.67;;;3.60;99.90;;;;;;5008259;28;20044;-80
2023/04/26 00:37:44;;;;;;;7.35;2.42;;;3.70;99.90;;;;;;5041946;28;20087;-80
2023/04/26 00:40:10;;;;;;;8.70;2.75;;;3.60;99.90;;;;;;5026689;28;20029;-80
2023/04/26 00:42:37;;;;;;;5.95;2.80;;;3.50;99.90;;;;;;5009095;28;20428;-80
2023/04/26 00:45:03;;;;;;;5.53;2.35;;;3.50;99.90;;;;;;5025125;28;20037;-80
2023/04/26 00:47:28;;;;;;;4.22;1.98;;;3.40;99.90;;;;;;5010456;28;20040;-80
2023/04/26 00:49:54;;;;;;;6.25;2.47;;;3.40;99.90;;;;;;5006021;28;20444;-80
2023/04/26 00:52:20;;;;;;;7.75;2.58;;;3.40;99.90;;;;;;5043977;28;20060;-80
2023/04/26 00:54:47;;;;;;;5.40;1.88;;;3.30;99.90;;;;;;5005625;28;20041;-80
2023/04/26 00:57:13;;;;;;;4.60;1.40;;;3.50;99.90;;;;;;5008164;28;20118;-80
2023/04/26 00:59:38;;;;;;;3.35;1.83;;;3.50;99.90;;;;;;5025204;28;20075;-80
2023/04/26 01:02:04;;;;;;;5.75;2.00;;;3.50;99.90;;;;;;5020799;28;20389;-80
2023/04/26 01:04:30;;;;;;;7.65;2.22;;;3.60;99.90;;;;;;5008272;28;20033;-80
2023/04/26 01:06:55;;;;;;;8.98;2.53;;;3.50;99.90;;;;;;5010255;28;20037;-80
2023/04/26 01:09:21;;;;;;;4.07;2.35;;;3.50;99.90;;;;;;5040204;28;20518;-80
2023/04/26 01:11:46;;;;;;;10.95;3.17;;;3.60;99.90;;;;;;5041426;28;20087;-80
2023/04/26 01:14:13;;;;;;;8.43;3.13;;;3.40;99.90;;;;;;5025237;28;20056;-80
2023/04/26 01:16:39;;;;;;;7.03;2.35;;;3.20;99.90;;;;;;5023158;28;20044;-80
2023/04/26 01:19:11;;;;;;;4.85;2.35;;;3.20;99.90;;;;;;5026768;28;20037;-80
2023/04/26 01:21:36;;;;;;;8.40;2.83;;;3.20;99.90;;;;;;5036023;28;20029;-80
2023/04/26 01:24:02;;;;;;;9.32;2.85;;;3.20;99.90;;;;;;5026670;28;20465;-80
2023/04/26 01:26:28;;;;;;;6.10;3.13;;;3.00;99.90;;;;;;5025267;28;20036;-79
2023/04/26 01:28:53;;;;;;;6.78;3.10;;;3.00;99.90;;;;;;5006095;28;20032;-80
2023/04/26 01:31:20;;;;;;;7.35;2.80;;;2.90;99.90;;;;;;5009940;28;20094;-80
2023/04/26 01:33:45;;;;;;;6.22;3.00;;;2.80;99.90;;;;;;5008236;28;20037;-80
2023/04/26 01:36:11;;;;;;;8.10;2.42;;;2.80;99.90;;;;;;5041997;28;20364;-79
2023/04/26 01:38:36;;;;;;;4.82;2.22;;;3.00;99.90;;;;;;5006327;28;20515;-80
2023/04/26 01:41:02;;;;;;;7.32;3.22;;;2.90;99.90;;;;;;5007809;28;20041;-80
2023/04/26 01:43:28;;;;;;;10.68;2.85;;;2.60;99.90;;;;;;5025872;28;20045;-79
2023/04/26 01:45:53;;;;;;;5.57;2.50;;;2.70;99.90;;;;;;5024224;28;20036;-79
2023/04/26 01:48:19;;;;;;;8.65;3.40;;;2.70;99.90;;;;;;5008831;28;20576;-79
2023/04/26 01:50:44;;;;;;;4.00;2.35;;;2.80;99.90;;;;;;5025364;28;20021;-79
2023/04/26 01:53:10;;;;;;;5.50;2.83;;;2.80;99.90;;;;;;5007357;28;20018;-79
2023/04/26 01:55:35;;;;;;;6.25;2.45;;;2.80;99.90;;;;;;5039313;28;20052;-79
2023/04/26 01:58:01;;;;;;;5.03;2.72;;;2.70;99.90;;;;;;5009595;28;20025;-80
2023/04/26 02:00:30;;;;;;;12.93;3.15;;;2.70;99.90;;;;;;5026167;28;20055;-79
2023/04/26 02:02:55;;;;;;;5.47;3.00;;;2.60;99.90;;;;;;5025974;28;20428;-80
2023/04/26 02:05:21;;;;;;;7.10;2.70;;;2.40;99.90;;;;;;5025181;28;20033;-80
2023/04/26 02:07:47;;;;;;;9.38;3.15;;;2.40;99.90;;;;;;5022414;28;20075;-80
2023/04/26 02:10:12;;;;;;;5.32;1.98;;;2.40;99.90;;;;;;5039496;28;20032;-80
2023/04/26 02:12:38;;;;;;;4.63;2.20;;;2.50;99.90;;;;;;5005526;28;20056;-80
2023/04/26 02:15:05;;;;;;;13.02;2.83;;;2.50;99.90;;;;;;5023694;28;20040;-80
2023/04/26 02:17:32;;;;;;;8.82;3.10;;;2.30;99.90;;;;;;5006328;28;20056;-80
2023/04/26 02:19:58;;;;;;;8.68;3.38;;;2.40;99.90;;;;;;5025306;28;20061;-80
2023/04/26 02:22:26;;;;;;;9.95;3.70;;;2.30;99.90;;;;;;5008618;28;20130;-80
2023/04/26 02:24:52;;;;;;;13.07;4.10;;;2.00;99.90;;;;;;5006549;28;20033;-80
2023/04/26 02:27:18;;;;;;;7.65;3.83;;;1.90;99.90;;;;;;5008220;28;20064;-80
2023/04/26 02:29:44;;;;;;;6.40;3.20;;;1.80;99.90;;;;;;5037417;28;20952;-80
2023/04/26 02:32:11;;;;;;;10.85;3.45;;;1.80;99.90;;;;;;5020244;28;20037;-80
2023/04/26 02:34:36;;;;;;;10.98;4.00;;;2.10;99.90;;;;;;5024446;28;20115;-80
2023/04/26 02:37:03;;;;;;;8.93;3.13;;;2.10;99.90;;;;;;5041210;28;20072;-80
2023/04/26 02:39:28;;;;;;;8.70;3.70;;;2.10;99.90;;;;;;5021551;28;20477;-80
2023/04/26 02:41:54;;;;;;;3.38;1.85;;;2.20;99.90;;;;;;5007405;28;20040;-80
2023/04/26 02:44:19;;;;;;;10.13;3.17;;;2.20;99.90;;;;;;5007092;28;20029;-80
2023/04/26 02:46:45;;;;;;;8.98;4.13;;;2.20;99.90;;;;;;5024415;28;20040;-80
2023/04/26 02:49:11;;;;;;;6.82;3.42;;;2.10;99.90;;;;;;5023456;28;20029;-79
2023/04/26 02:51:36;;;;;;;4.80;2.58;;;2.10;99.90;;;;;;5004251;28;20033;-79
2023/04/26 02:54:02;;;;;;;7.80;3.25;;;2.00;99.90;;;;;;5021492;28;20040;-80
2023/04/26 02:56:27;;;;;;;5.13;2.90;;;2.10;99.90;;;;;;5006330;28;20032;-79
2023/04/26 02:58:53;;;;;;;7.82;3.67;;;2.10;99.90;;;;;;5008207;28;20078;-79
2023/04/26 03:01:19;;;;;;;7.28;3.00;;;1.90;99.90;;;;;;5024668;28;20390;-80
2023/04/26 03:03:44;;;;;;;5.63;2.97;;;1.90;99.90;;;;;;5007755;28;20029;-80
2023/04/26 03:06:10;;;;;;;11.40;4.40;;;1.80;99.90;;;;;;5009788;28;20109;-78
2023/04/26 03:08:35;;;;;;;6.28;3.20;;;1.80;99.90;;;;;;5010050;28;20025;-81
2023/04/26 03:11:02;;;;;;;9.95;3.83;;;1.90;99.90;;;;;;5010600;28;20021;-79
2023/04/26 03:13:27;;;;;;;10.25;4.38;;;1.80;99.90;;;;;;5008026;28;20523;-79
2023/04/26 03:15:53;;;;;;;6.25;3.58;;;1.70;99.90;;;;;;5026631;28;20029;-79
2023/04/26 03:18:18;;;;;;;12.60;4.72;;;1.70;99.90;;;;;;5027488;28;20033;-79
2023/04/26 03:20:47;;;;;;;8.20;3.92;;;1.70;99.90;;;;;;5028219;28;20021;-79
2023/04/26 03:23:12;;;;;;;4.35;2.70;;;1.80;99.90;;;;;;5006765;28;20036;-79
2023/04/26 03:25:38;;;;;;;9.52;4.15;;;1.80;99.90;;;;;;5006629;28;20029;-79
2023/04/26 03:28:04;;;;;;;13.88;3.25;;;1.80;99.90;;;;;;5009634;28;20405;-79
2023/04/26 03:30:29;;;;;;;4.70;3.20;;;1.60;99.90;;;;;;5023250;28;20021;-79
2023/04/26 03:32:56;;;;;;;7.55;3.50;;;1.70;99.90;;;;;;5009095;28;20041;-80
2023/04/26 03:35:21;;;;;;;6.10;3.20;;;1.80;99.90;;;;;;5027394;28;20041;-80
2023/04/26 03:37:48;;;;;;;8.75;2.85;;;1.80;99.90;;;;;;5009166;28;20816;-80
2023/04/26 03:40:13;;;;;;;8.38;3.13;;;1.70;99.90;;;;;;5029494;28;20037;-80
2023/04/26 03:42:39;;;;;;;7.22;3.33;;;1.70;99.90;;;;;;5008862;28;20051;-81
2023/04/26 03:45:05;;;;;;;5.65;2.67;;;1.70;99.90;;;;;;5026041;28;20037;-79
2023/04/26 03:47:31;;;;;;;5.85;3.25;;;1.70;99.90;;;;;;5025663;28;20089;-79
2023/04/26 03:49:57;;;;;;;10.82;3.80;;;1.60;99.90;;;;;;5009647;28;20064;-79
2023/04/26 03:52:22;;;;;;;12.45;4.43;;;1.60;99.90;;;;;;5028358;28;20098;-79
2023/04/26 03:54:48;;;;;;;10.75;3.78;;;1.60;99.90;;;;;;5026725;28;20417;-79
2023/04/26 03:57:13;;;;;;;9.63;4.68;;;1.50;99.90;;;;;;5028034;28;20258;-79
2023/04/26 03:59:39;;;;;;;10.20;4.43;;;1.40;99.90;;;;;;5027425;28;20036;-81
2023/04/26 04:02:05;;;;;;;7.88;4.38;;;1.60;99.90;;;;;;5008597;28;20032;-80
2023/04/26 04:04:30;;;;;;;4.15;2.53;;;1.50;99.90;;;;;;5008217;28;20037;-79
2023/04/26 04:06:56;;;;;;;5.88;3.90;;;1.50;99.90;;;;;;5008238;28;20037;-79
2023/04/26 04:09:21;;;;;;;6.97;3.63;;;1.60;99.90;;;;;;5005378;28;20053;-79
2023/04/26 04:11:47;;;;;;;7.90;3.75;;;1.60;99.90;;;;;;5008012;28;20112;-79
2023/04/26 04:14:13;;;;;;;5.85;3.42;;;1.50;99.90;;;;;;5007910;28;20219;-79
2023/04/26 04:16:38;;;;;;;11.25;5.25;;;1.50;99.90;;;;;;5007977;28;20107;-79
2023/04/26 04:19:04;;;;;;;9.45;4.80;;;1.50;99.90;;;;;;5009255;28;20065;-79
2023/04/26 04:21:30;;;;;;;10.38;5.68;;;1.30;99.90;;;;;;5006175;28;20037;-79
2023/04/26 04:23:56;;;;;;;11.88;5.55;;;1.20;99.90;;;;;;5009451;28;20039;-79
2023/04/26 04:26:22;;;;;;;6.63;3.33;;;1.20;99.90;;;;;;5025317;28;20025;-79
2023/04/26 04:28:47;;;;;;;10.13;4.57;;;1.20;99.90;;;;;;5007476;28;20033;-79
2023/04/26 04:31:13;;;;;;;7.28;3.25;;;1.20;99.90;;;;;;5004398;28;20090;-79
2023/04/26 04:33:38;;;;;;;13.60;5.50;;;1.40;99.90;;;;;;5025060;28;20030;-79
2023/04/26 04:36:05;;;;;;;7.13;4.35;;;1.60;99.90;;;;;;5007480;28;20025;-79
2023/04/26 04:38:31;;;;;;;7.47;3.28;;;1.60;99.90;;;;;;5024778;28;20492;-78
2023/04/26 04:40:57;;;;;;;6.88;4.30;;;1.70;99.90;;;;;;5025617;28;20044;-79
2023/04/26 04:43:23;;;;;;;9.65;5.35;;;1.60;99.90;;;;;;5007908;28;20108;-79
2023/04/26 04:45:48;;;;;;;8.98;4.50;;;1.60;99.90;;;;;;5007417;28;20052;-78
2023/04/26 04:48:14;;;;;;;13.85;6.30;;;1.60;99.90;;;;;;5025726;28;20136;-79
2023/04/26 04:50:43;;;;;;;9.20;4.10;;;1.50;99.90;;;;;;5022147;28;20087;-79
2023/04/26 04:53:09;;;;;;;15.38;6.28;;;1.40;99.90;;;;;;5014309;28;20025;-79
2023/04/26 04:55:35;;;;;;;7.60;4.70;;;1.50;99.90;;;;;;5025607;28;20502;-80
2023/04/26 04:58:02;;;;;;;16.95;5.75;;;1.60;99.90;;;;;;5005244;28;20033;-80
2023/04/26 05:00:28;;;;;;;18.50;8.00;;;1.60;99.90;;;;;;5009257;28;20037;-80
2023/04/26 05:02:55;;;;;;;15.88;6.95;;;1.70;99.90;;;;;;5010128;28;20739;-80
2023/04/26 05:05:20;;;;;;;15.80;8.02;;;1.70;99.90;;;;;;5026130;28;20757;-80
2023/04/26 05:07:46;;;;;;;15.65;7.32;;;1.60;99.90;;;;;;5021140;28;20103;-80
2023/04/26 05:10:12;;;;;;;17.60;7.65;;;1.70;99.90;;;;;;5024553;28;20063;-80
2023/04/26 05:12:37;;;;;;;17.27;8.43;;;1.80;99.90;;;;;;5021553;28;20041;-80
2023/04/26 05:15:04;;;;;;;16.08;6.45;;;1.80;99.90;;;;;;5022678;28;21578;-78
2023/04/26 05:17:31;;;;;;;18.38;8.95;;;1.80;99.90;;;;;;5040604;28;20073;-79
2023/04/26 05:19:57;;;;;;;17.38;8.02;;;1.90;99.90;;;;;;5007951;28;20043;-80
2023/04/26 05:22:22;;;;;;;13.82;5.53;;;2.10;99.90;;;;;;5004256;28;20025;-82
2023/04/26 05:24:48;;;;;;;19.90;8.05;;;2.20;99.90;;;;;;5021818;28;20405;-81
2023/04/26 05:27:14;;;;;;;19.08;9.10;;;2.50;99.90;;;;;;5006209;28;20458;-81
2023/04/26 05:29:40;;;;;;;21.70;9.90;;;2.70;99.90;;;;;;5003375;28;20036;-81
2023/04/26 05:32:06;;;;;;;12.20;5.13;;;2.70;99.90;;;;;;5022257;28;20036;-81
2023/04/26 05:34:31;;;;;;;14.20;6.60;;;2.80;99.90;;;;;;5005225;28;20033;-81
2023/04/26 05:36:57;;;;;;;13.85;6.45;;;3.00;99.90;;;;;;5021844;28;20416;-81
2023/04/26 05:39:23;;;;;;;18.95;9.90;;;3.20;99.90;;;;;;5021084;28;20115;-81
2023/04/26 05:41:48;;;;;;;19.05;10.35;;;3.30;99.90;;;;;;5023209;28;20413;-81
2023/04/26 05:44:14;;;;;;;20.10;11.38;;;3.20;99.90;;;;;;5005545;28;20029;-81
2023/04/26 05:46:40;;;;;;;24.38;11.38;;;3.30;99.90;;;;;;5020718;28;20452;-80
2023/04/26 05:49:06;;;;;;;25.23;11.10;;;3.40;99.90;;;;;;5025142;28;20120;-81
2023/04/26 05:51:31;;;;;;;27.95;12.25;;;3.50;99.90;;;;;;5023700;28;20044;-81
2023/04/26 05:53:57;;;;;;;23.13;12.32;;;3.70;99.90;;;;;;5025794;28;20423;-81
2023/04/26 05:56:23;;;;;;;28.00;12.85;;;3.80;99.90;;;;;;5003449;28;20044;-81
2023/04/26 05:58:49;;;;;;;23.58;8.93;;;3.90;99.90;;;;;;5022060;28;20036;-81
2023/04/26 06:01:15;;;;;;;26.33;12.88;;;4.00;99.90;;;;;;5005985;28;20040;-81
2023/04/26 06:03:40;;;;;;;29.27;12.90;;;4.20;99.90;;;;;;5015288;28;20083;-80
2023/04/26 06:06:06;;;;;;;22.23;11.32;;;4.30;99.90;;;;;;5024755;28;20036;-80
2023/04/26 06:08:32;;;;;;;22.08;10.70;;;4.50;99.90;;;;;;5024262;28;20029;-81
2023/04/26 06:10:58;;;;;;;25.70;13.45;;;4.60;99.90;;;;;;5010697;28;20057;-81
2023/04/26 06:13:23;;;;;;;24.23;13.45;;;4.70;99.90;;;;;;5023506;28;20110;-80
2023/04/26 06:15:49;;;;;;;25.98;10.95;;;4.90;99.90;;;;;;5040639;28;20380;-81
2023/04/26 06:18:15;;;;;;;22.27;11.00;;;5.10;99.90;;;;;;5007603;28;20033;-80
2023/04/26 06:20:41;;;;;;;13.77;7.10;;;5.20;99.90;;;;;;5021190;28;20297;-80
2023/04/26 06:23:06;;;;;;;18.25;10.35;;;5.40;99.90;;;;;;5025123;28;20167;-82
2023/04/26 06:25:33;;;;;;;21.23;10.32;;;5.40;99.90;;;;;;5025179;28;20083;-79
2023/04/26 06:27:59;;;;;;;8.73;5.10;;;5.50;99.90;;;;;;5007843;28;20033;-79
2023/04/26 06:30:25;;;;;;;14.80;8.77;;;5.60;99.90;;;;;;5005259;28;20097;-81
2023/04/26 06:32:51;;;;;;;12.00;6.65;;;5.80;99.90;;;;;;5020095;28;20615;-80
2023/04/26 06:35:17;;;;;;;9.10;5.63;;;5.90;99.90;;;;;;5007795;28;20492;-79
2023/04/26 06:37:42;;;;;;;15.63;7.43;;;6.10;99.90;;;;;;5031809;28;20040;-80
2023/04/26 06:40:09;;;;;;;12.32;6.43;;;6.30;99.90;;;;;;5022699;28;20037;-80
2023/04/26 06:42:35;;;;;;;10.15;5.45;;;6.40;99.90;;;;;;5005455;28;20524;-79
2023/04/26 06:45:01;;;;;;;17.52;6.80;;;6.60;99.90;;;;;;5009005;28;20026;-80
2023/04/26 06:47:26;;;;;;;18.27;8.65;;;6.80;99.90;;;;;;5005733;28;20041;-80
2023/04/26 06:49:52;;;;;;;17.63;8.13;;;7.00;99.90;;;;;;5007162;28;20147;-80
2023/04/26 06:52:17;;;;;;;18.80;7.75;;;7.10;99.90;;;;;;5006490;28;20033;-80
2023/04/26 06:54:43;;;;;;;14.45;5.65;;;7.30;99.90;;;;;;5022299;28;20041;-79
2023/04/26 06:57:08;;;;;;;19.67;8.55;;;7.40;99.90;;;;;;5006276;28;20028;-80
2023/04/26 06:59:34;;;;;;;13.10;6.88;;;7.50;99.90;;;;;;5006058;28;20033;-79
2023/04/26 07:02:02;;;;;;;9.27;5.30;;;7.70;99.90;;;;;;5006508;28;20044;-80
2023/04/26 07:04:28;;;;;;;19.05;8.43;;;7.90;99.90;;;;;;5025287;28;20064;-80
2023/04/26 07:06:53;;;;;;;17.80;7.45;;;8.30;99.90;;;;;;5023651;28;20060;-80
2023/04/26 07:09:19;;;;;;;10.80;4.45;;;8.50;99.90;;;;;;5005972;28;20448;-80
2023/04/26 07:11:46;;;;;;;13.38;5.57;;;8.60;99.90;;;;;;5006370;28;20408;-80
2023/04/26 07:14:11;;;;;;;20.15;7.15;;;8.80;99.90;;;;;;5007670;28;20098;-80
2023/04/26 07:16:37;;;;;;;12.93;5.75;;;8.90;99.90;;;;;;5024016;28;20045;-79
2023/04/26 07:19:03;;;;;;;13.15;7.80;;;9.10;99.90;;;;;;5022548;28;20056;-80
2023/04/26 07:21:28;;;;;;;17.00;7.38;;;9.10;99.90;;;;;;5007431;28;20612;-79
2023/04/26 07:23:54;;;;;;;13.15;5.40;;;9.20;99.90;;;;;;5007022;28;20061;-79
2023/04/26 07:26:21;;;;;;;11.18;4.65;;;9.20;99.90;;;;;;5003432;28;20026;-79
2023/04/26 07:28:46;;;;;;;16.25;5.50;;;9.30;99.90;;;;;;5004355;28;20043;-80
2023/04/26 07:31:12;;;;;;;9.88;5.05;;;9.50;99.90;;;;;;5006629;28;20224;-80
2023/04/26 07:33:38;;;;;;;8.25;4.18;;;9.80;99.90;;;;;;5006662;28;20056;-79
2023/04/26 07:36:04;;;;;;;12.73;4.80;;;10.00;99.90;;;;;;5007050;28;20753;-79
2023/04/26 07:38:30;;;;;;;8.23;4.82;;;10.00;99.90;;;;;;5004688;28;20508;-80
2023/04/26 07:40:55;;;;;;;13.30;5.00;;;10.10;99.90;;;;;;5005468;28;20053;-79
2023/04/26 07:43:21;;;;;;;11.18;4.03;;;10.20;99.90;;;;;;5022584;28;21644;-79
2023/04/26 07:45:47;;;;;;;11.02;3.83;;;10.30;99.90;;;;;;5028264;28;20021;-79
2023/04/26 07:48:13;;;;;;;9.40;4.30;;;10.30;99.90;;;;;;5011142;28;20024;-79
2023/04/26 07:50:38;;;;;;;11.05;4.85;;;10.40;99.90;;;;;;5008950;28;20031;-79
2023/04/26 07:53:04;;;;;;;8.65;4.53;;;10.50;99.90;;;;;;5025121;28;20025;-79
2023/04/26 07:55:29;;;;;;;7.15;4.22;;;10.70;99.90;;;;;;5027808;28;20047;-80
2023/04/26 07:57:55;;;;;;;7.88;4.35;;;10.70;99.90;;;;;;5010304;28;20037;-80
2023/04/26 08:00:23;;;;;;;8.07;3.58;;;11.00;99.90;;;;;;5007218;28;20488;-80
2023/04/26 08:02:49;;;;;;;12.90;4.10;;;11.10;99.90;;;;;;5006034;28;20485;-79
2023/04/26 08:05:15;;;;;;;8.05;3.40;;;11.10;99.90;;;;;;5007300;28;20037;-79
2023/04/26 08:07:41;;;;;;;9.35;3.20;;;11.00;99.90;;;;;;5009154;28;20034;-79
2023/04/26 08:10:07;;;;;;;7.38;2.35;;;11.20;99.90;;;;;;5010628;28;20048;-79
2023/04/26 08:12:38;;;;;;;10.52;2.67;;;11.50;99.90;;;;;;5008296;28;20098;-78
2023/04/26 08:15:05;;;;;;;8.32;2.67;;;11.50;99.90;;;;;;5039029;28;20029;-78
2023/04/26 08:17:31;;;;;;;3.38;2.00;;;11.60;99.90;;;;;;5007261;28;20060;-78
2023/04/26 08:19:57;;;;;;;6.25;2.78;;;11.80;99.90;;;;;;5027353;28;20101;-78
2023/04/26 08:22:23;;;;;;;8.43;2.38;;;12.00;99.90;;;;;;5009151;28;20068;-79
2023/04/26 08:24:49;;;;;;;5.32;2.58;;;11.90;99.90;;;;;;5026368;28;20025;-78
2023/04/26 08:27:18;;;;;;;8.18;3.42;;;12.00;99.90;;;;;;5025484;28;20056;-79
2023/04/26 08:29:43;;;;;;;4.88;2.40;;;12.50;99.90;;;;;;5027501;28;20040;-79
2023/04/26 08:32:09;;;;;;;10.70;2.60;;;12.80;99.90;;;;;;5008638;28;20041;-77
2023/04/26 08:34:34;;;;;;;9.93;3.03;;;13.30;99.90;;;;;;5026541;28;20045;-79
2023/04/26 08:37:00;;;;;;;12.68;3.10;;;13.20;99.90;;;;;;5025920;28;20568;-79
2023/04/26 08:39:26;;;;;;;9.07;2.65;;;13.30;99.90;;;;;;5024647;28;20044;-80
2023/04/26 08:41:54;;;;;;;6.85;3.25;;;13.60;99.90;;;;;;5038878;28;20083;-80
2023/04/26 08:44:25;;;;;;;9.20;2.88;;;13.80;99.90;;;;;;5021879;28;20026;-79
2023/04/26 08:47:02;;;;;;;6.75;2.72;;;13.80;99.90;;;;;;5024849;28;20037;-79
2023/04/26 08:49:41;;;;;;;9.35;2.70;;;13.40;99.90;;;;;;5021283;28;20021;-79
2023/04/26 08:52:11;;;;;;;8.88;2.95;;;13.70;99.90;;;;;;5026020;28;20538;-80
2023/04/26 08:54:37;;;;;;;8.13;2.40;;;14.10;99.90;;;;;;5039768;28;20049;-78
2023/04/26 08:57:03;;;;;;;5.07;3.17;;;14.00;99.90;;;;;;5025543;28;20485;-79
2023/04/26 08:59:33;;;;;;;9.35;2.50;;;14.20;99.90;;;;;;5007553;28;20028;-78
2023/04/26 09:02:01;;;;;;;13.30;3.10;;;14.60;99.90;;;;;;5027342;28;20550;-78
2023/04/26 09:04:27;;;;;;;11.65;2.90;;;14.70;99.90;;;;;;5021087;28;20101;-79
2023/04/26 09:06:53;;;;;;;9.55;3.40;;;14.80;99.90;;;;;;5004531;28;20508;-78
2023/04/26 09:09:19;;;;;;;7.82;2.78;;;14.90;99.90;;;;;;5023194;28;20034;-79
2023/04/26 09:12:11;;;;;;;9.18;2.85;;;15.00;99.90;;;;;;5025465;28;20455;-80
2023/04/26 09:14:37;;;;;;;7.43;3.70;;;14.60;99.90;;;;;;5018667;28;20029;-79
2023/04/26 09:17:03;;;;;;;7.40;3.38;;;14.60;99.90;;;;;;5037774;28;20427;-79
2023/04/26 09:19:39;;;;;;;6.38;3.28;;;14.70;99.90;;;;;;5042381;28;20036;-76
2023/04/26 09:22:08;;;;;;;;;;;14.60;99.90;;;;;;5022207;28;20047;-79
2023/04/26 09:24:53;;;;;;;6.57;3.00;;;14.70;99.90;;;;;;5041167;28;20012;-80
2023/04/26 09:27:19;;;;;;;6.72;3.72;;;14.60;99.90;;;;;;5036412;28;21525;-80
2023/04/26 09:30:09;;;;;;;8.77;3.80;;;14.70;99.90;;;;;;5007088;28;20029;-80
2023/04/26 09:32:56;;;;;;;7.20;3.67;;;14.80;99.90;;;;;;5026234;28;20694;-78
2023/04/26 09:35:31;;;;;;;9.93;4.10;;;15.10;99.90;;;;;;5007006;28;20043;-78
2023/04/26 09:37:58;;;;;;;8.75;3.92;;;15.10;99.90;;;;;;5043972;28;20060;-78
2023/04/26 09:40:24;;;;;;;8.60;3.50;;;15.50;99.90;;;;;;5043386;28;20056;-79
2023/04/26 09:43:00;;;;;;;9.02;3.22;;;15.50;99.90;;;;;;5020678;28;20087;-76
2023/04/26 09:45:26;;;;;;;6.43;3.45;;;15.40;99.90;;;;;;5004596;28;20443;-76
2023/04/26 09:47:52;;;;;;;8.93;3.50;;;15.60;99.90;;;;;;5004710;28;20938;-76
2023/04/26 09:50:30;;;;;;;10.48;4.72;;;15.70;99.50;;;;;;5007054;28;20029;-76
2023/04/26 09:52:56;;;;;;;6.70;3.58;;;15.70;98.90;;;;;;5036664;28;20095;-77
2023/04/26 09:55:26;;;;;;;9.35;2.90;;;15.70;99.00;;;;;;5008472;28;20548;-79
2023/04/26 09:57:52;;;;;;;6.80;3.60;;;15.50;99.90;;;;;;5035934;28;20489;-76
2023/04/26 10:00:18;;;;;;;15.68;2.88;;;15.40;99.20;;;;;;5025676;28;20033;-78
2023/04/26 10:02:44;;;;;;;13.48;4.30;;;15.30;99.40;;;;;;5019321;28;20636;-78
2023/04/26 10:05:09;;;;;;;7.20;3.65;;;15.40;99.10;;;;;;5009756;28;20033;-77
2023/04/26 10:07:35;;;;;;;6.80;3.03;;;15.40;99.90;;;;;;5004875;28;20442;-77
2023/04/26 10:10:02;;;;;;;5.95;2.53;;;15.40;99.40;;;;;;5021061;28;20450;-78
2023/04/26 10:12:28;;;;;;;7.55;3.00;;;15.30;98.60;;;;;;5022690;28;20115;-77
2023/04/26 10:14:53;;;;;;;7.00;3.38;;;15.30;99.90;;;;;;5040300;28;20477;-77
2023/04/26 10:17:20;;;;;;;3.72;2.47;;;15.60;99.30;;;;;;5025406;28;20055;-77
2023/04/26 10:19:46;;;;;;;5.65;3.00;;;15.80;99.00;;;;;;5021709;28;20055;-77
2023/04/26 10:22:26;;;;;;;9.70;2.75;;;16.00;98.00;;;;;;5025044;28;20548;-78
2023/04/26 10:24:52;;;;;;;7.75;4.78;;;15.90;97.30;;;;;;5024296;28;20428;-78
2023/04/26 10:27:44;;;;;;;7.72;2.85;;;16.00;96.60;;;;;;5024029;28;20711;-77
2023/04/26 10:30:13;;;;;;;8.27;2.95;;;16.10;97.00;;;;;;5039670;28;20033;-78
2023/04/26 10:32:56;;;;;;;9.35;2.85;;;16.20;96.30;;;;;;5035867;28;20033;-79
2023/04/26 10:35:23;;;;;;;8.23;3.13;;;16.50;96.80;;;;;;5040452;28;20048;-78
2023/04/26 10:38:00;;;;;;;10.55;2.85;;;16.40;96.60;;;;;;5005607;28;20504;-79
2023/04/26 10:40:32;;;;;;;6.57;2.33;;;16.10;96.30;;;;;;5039116;28;20037;-78
2023/04/26 10:43:13;;;;;;;6.20;2.97;;;16.20;96.40;;;;;;5023772;28;20037;-77
2023/04/26 10:45:40;;;;;;;7.90;2.55;;;16.10;96.80;;;;;;5037064;28;20493;-78
2023/04/26 10:48:19;;;;;;;5.00;2.15;;;16.10;95.90;;;;;;5024004;28;20036;-77
2023/04/26 10:51:00;;;;;;;4.75;1.98;;;16.40;95.30;;;;;;5038068;28;20056;-77
2023/04/26 10:53:29;;;;;;;13.23;3.17;;;16.60;94.40;;;;;;5034001;28;20067;-77
2023/04/26 10:55:57;;;;;;;7.32;2.50;;;16.50;92.90;;;;;;5031372;28;20033;-77
2023/04/26 10:58:30;;;;;;;4.47;2.17;;;16.50;93.20;;;;;;5023027;28;20033;-78
2023/04/26 11:01:16;;;;;;;8.48;2.72;;;16.30;93.70;;;;;;5023981;28;20056;-77
2023/04/26 11:03:42;;;;;;;5.50;2.28;;;16.60;93.90;;;;;;5022294;28;20520;-78
2023/04/26 11:06:14;;;;;;;6.70;2.72;;;17.00;93.60;;;;;;5005119;28;20052;-78
2023/04/26 11:08:39;;;;;;;3.90;1.70;;;16.50;93.40;;;;;;5005344;28;20025;-77
2023/04/26 11:11:07;;;;;;;6.07;2.05;;;16.30;91.80;;;;;;5040783;28;20040;-77
2023/04/26 11:13:40;;;;;;;5.18;1.67;;;16.70;94.00;;;;;;5022361;28;20040;-77
2023/04/26 11:16:10;;;;;;;7.53;2.42;;;16.70;92.20;;;;;;5021535;28;20484;-78
2023/04/26 11:18:37;;;;;;;3.78;2.00;;;17.00;93.30;;;;;;5040011;28;20029;-77
2023/04/26 11:21:04;;;;;;;4.97;2.58;;;17.50;92.70;;;;;;5026700;28;20105;-77
2023/04/26 11:23:29;;;;;;;3.58;1.98;;;17.50;92.10;;;;;;5042946;28;20040;-77
2023/04/26 11:25:59;;;;;;;6.43;2.50;;;17.60;91.40;;;;;;5041687;28;20515;-77
2023/04/26 11:28:24;;;;;;;4.50;2.35;;;17.80;91.30;;;;;;5026075;28;20034;-77
2023/04/26 11:30:50;;;;;;;4.93;1.98;;;17.60;90.50;;;;;;5027805;28;20029;-77
2023/04/26 11:33:18;;;;;;;7.80;2.08;;;17.40;91.20;;;;;;5007952;28;20025;-76
2023/04/26 11:35:47;;;;;;;5.25;2.10;;;17.50;90.50;;;;;;5028112;28;20037;-77
2023/04/26 11:38:12;;;;;;;6.97;1.92;;;17.80;90.70;;;;;;5010663;28;20476;-76
2023/04/26 11:40:38;;;;;;;6.18;2.03;;;17.80;89.30;;;;;;5007661;28;20044;-78
2023/04/26 11:43:04;;;;;;;5.85;1.65;;;17.70;88.20;;;;;;5026250;28;20509;-77
2023/04/26 11:45:35;;;;;;;6.03;2.47;;;17.50;88.70;;;;;;5025477;28;20037;-77
2023/04/26 11:48:01;;;;;;;10.15;1.75;;;17.70;87.80;;;;;;5010505;28;20175;-78
2023/04/26 11:50:27;;;;;;;2.42;2.00;;;17.40;86.50;;;;;;5026570;28;20033;-78
2023/04/26 11:52:54;;;;;;;5.00;2.15;;;17.30;86.30;;;;;;5010884;28;20029;-77
2023/04/26 11:55:23;;;;;;;1.95;1.10;;;17.30;86.40;;;;;;5038205;28;20590;-77
2023/04/26 11:57:49;;;;;;;7.38;2.08;;;17.00;84.30;;;;;;5036882;28;20025;-77
2023/04/26 12:00:15;;;;;;;3.90;1.75;;;17.20;83.60;;;;;;5028001;28;20033;-78
2023/04/26 12:02:45;;;;;;;6.22;2.03;;;17.20;85.40;;;;;;5022524;28;20049;-78
2023/04/26 12:05:19;;;;;;;4.00;2.08;;;17.40;84.70;;;;;;5025868;28;20025;-78
2023/04/26 12:07:48;;;;;;;4.82;1.77;;;17.30;83.20;;;;;;5029614;28;20327;-77
2023/04/26 12:10:17;;;;;;;5.72;2.00;;;17.30;83.20;;;;;;5011806;28;20033;-77
2023/04/26 12:12:47;;;;;;;7.32;2.45;;;17.20;82.90;;;;;;5041797;28;20445;-78
2023/04/26 12:15:13;;;;;;;4.18;2.20;;;17.30;81.60;;;;;;5022130;28;20592;-77
2023/04/26 12:17:39;;;;;;;8.90;2.47;;;17.20;81.60;;;;;;5043394;28;20569;-78
2023/04/26 12:20:09;;;;;;;3.72;2.08;;;17.30;81.90;;;;;;5043848;28;20033;-77
2023/04/26 12:22:35;;;;;;;8.38;2.40;;;17.60;80.10;;;;;;5027264;28;20037;-78
2023/04/26 12:25:09;;;;;;;6.10;2.30;;;17.70;76.80;;;;;;5026789;28;20374;-77
2023/04/26 12:27:34;;;;;;;5.82;2.22;;;17.70;80.20;;;;;;5027084;28;20094;-76
2023/04/26 12:30:00;;;;;;;5.35;3.05;;;17.80;79.80;;;;;;5023818;28;20419;-78
2023/04/26 12:32:26;;;;;;;9.05;2.40;;;18.10;77.40;;;;;;5038953;28;20033;-76
2023/04/26 12:34:51;;;;;;;6.63;2.15;;;18.20;76.20;;;;;;5043474;28;20108;-76
2023/04/26 12:37:17;;;;;;;3.83;1.58;;;18.40;74.70;;;;;;5009060;28;20115;-76
2023/04/26 12:39:43;;;;;;;4.95;2.10;;;18.40;77.60;;;;;;5042729;28;20037;-76
2023/04/26 12:42:08;;;;;;;6.32;2.10;;;18.40;78.00;;;;;;5044116;28;20102;-76
2023/04/26 12:44:35;;;;;;;6.15;1.70;;;18.60;76.40;;;;;;5028375;28;20494;-78
2023/04/26 12:47:00;;;;;;;3.15;1.88;;;18.60;79.50;;;;;;5026406;28;20036;-77
2023/04/26 12:49:28;;;;;;;5.38;2.30;;;18.60;74.80;;;;;;5025133;28;20028;-78